Time;durP1;ratioP1;P1;durP2;ratioP2;P2;SDS_P1;SDS_P2;PMS_P1;PMS_P2;Temp;Humidity;BMP_temperature;BMP_pressure;BME280_temperature;BME280_humidity;BME280_pressure;Samples;Min_cycle;Max_cycle;Signal;HPM_P1;HPM_P2
2022/03/22 00:02:09;;;;;;;46.88;19.00;;;;;;;;;;5006624;28;20405;-82
2022/03/22 00:04:38;;;;;;;47.85;20.48;;;;;;;;;;4999245;28;20026;-81
2022/03/22 00:07:04;;;;;;;53.78;20.30;;;;;;;;;;5017557;28;20144;-80
2022/03/22 00:09:29;;;;;;;45.90;19.52;;;;;;;;;;5020011;28;20164;-80
2022/03/22 00:11:55;;;;;;;44.00;18.85;;;;;;;;;;5025630;28;21295;-80
2022/03/22 00:14:21;;;;;;;49.20;19.45;;;;;;;;;;5022003;28;20037;-80
2022/03/22 00:16:48;;;;;;;51.97;18.92;;;;;;;;;;4991875;28;20037;-80
2022/03/22 00:19:14;;;;;;;50.55;19.20;;;;;;;;;;5038048;28;20069;-80
2022/03/22 00:21:39;;;;;;;43.20;18.00;;;;;;;;;;5023924;28;20034;-80
2022/03/22 00:24:05;;;;;;;55.13;19.80;;;;;;;;;;4983690;28;20159;-80
2022/03/22 00:26:31;;;;;;;49.83;20.05;;;;;;;;;;5006763;28;20129;-80
2022/03/22 00:28:58;;;;;;;50.63;19.45;;;;;;;;;;5016799;28;20037;-80
2022/03/22 00:31:24;;;;;;;53.92;21.48;;;;;;;;;;5018611;28;20116;-80
2022/03/22 00:33:49;;;;;;;58.95;21.40;;;;;;;;;;5023140;28;20147;-80
2022/03/22 00:36:15;;;;;;;57.67;20.33;;;;;;;;;;5000372;28;20037;-80
2022/03/22 00:38:41;;;;;;;51.08;20.80;;;;;;;;;;4994104;28;20125;-80
2022/03/22 00:41:06;;;;;;;59.85;22.52;;;;;;;;;;4997093;28;20033;-80
2022/03/22 00:43:34;;;;;;;69.80;22.13;;;;;;;;;;5003783;28;20693;-80
2022/03/22 00:46:01;;;;;;;53.38;21.35;;;;;;;;;;5023612;28;20137;-79
2022/03/22 00:48:27;;;;;;;62.63;21.42;;;;;;;;;;5020682;28;20040;-80
2022/03/22 00:50:53;;;;;;;60.13;22.58;;;;;;;;;;5032340;28;20033;-80
2022/03/22 00:53:19;;;;;;;59.92;21.73;;;;;;;;;;5039041;28;20049;-79
2022/03/22 00:55:46;;;;;;;53.78;22.15;;;;;;;;;;5036629;28;20025;-80
2022/03/22 00:58:12;;;;;;;72.88;22.85;;;;;;;;;;5022631;28;20057;-80
2022/03/22 01:00:38;;;;;;;56.53;22.45;;;;;;;;;;5023130;28;20041;-80
2022/03/22 01:03:05;;;;;;;67.93;22.45;;;;;;;;;;5005202;28;20144;-79
2022/03/22 01:05:31;;;;;;;56.10;20.70;;;;;;;;;;5022095;28;20045;-80
2022/03/22 01:08:07;;;;;;;58.25;23.20;;;;;;;;;;5042997;28;20029;-80
2022/03/22 01:10:34;;;;;;;68.32;22.88;;;;;;;;;;5020015;28;20025;-80
2022/03/22 01:13:00;;;;;;;78.15;24.90;;;;;;;;;;5024553;28;20489;-81
2022/03/22 01:15:32;;;;;;;70.97;24.05;;;;;;;;;;5027656;28;20087;-80
2022/03/22 01:17:59;;;;;;;57.17;24.13;;;;;;;;;;5022754;28;20056;-80
2022/03/22 01:20:26;;;;;;;71.25;24.48;;;;;;;;;;5017474;28;20540;-80
2022/03/22 01:22:53;;;;;;;69.18;25.48;;;;;;;;;;5022568;28;20037;-79
2022/03/22 01:25:25;;;;;;;71.25;24.88;;;;;;;;;;5036207;28;20463;-80
2022/03/22 01:27:51;;;;;;;77.38;23.70;;;;;;;;;;5023824;28;20034;-79
2022/03/22 01:30:22;;;;;;;64.45;25.30;;;;;;;;;;5022565;28;20033;-80
2022/03/22 01:32:50;;;;;;;64.95;25.63;;;;;;;;;;5039240;28;20030;-79
2022/03/22 01:35:16;;;;;;;68.43;26.00;;;;;;;;;;5020604;28;20408;-80
2022/03/22 01:37:43;;;;;;;81.57;27.35;;;;;;;;;;5034086;28;20052;-80
2022/03/22 01:40:10;;;;;;;60.33;25.08;;;;;;;;;;5035265;28;20029;-80
2022/03/22 01:42:35;;;;;;;69.72;26.30;;;;;;;;;;5028975;28;20029;-80
2022/03/22 01:45:04;;;;;;;74.63;26.83;;;;;;;;;;5007505;28;20040;-80
2022/03/22 01:47:30;;;;;;;70.63;26.48;;;;;;;;;;5026875;28;20036;-80
2022/03/22 01:49:55;;;;;;;75.82;27.20;;;;;;;;;;5003029;28;20040;-80
2022/03/22 01:52:26;;;;;;;71.80;27.48;;;;;;;;;;5025220;28;20025;-80
2022/03/22 01:54:55;;;;;;;87.68;26.85;;;;;;;;;;5025028;28;20033;-80
2022/03/22 01:57:24;;;;;;;81.60;29.40;;;;;;;;;;5034310;28;20033;-79
2022/03/22 01:59:50;;;;;;;85.88;28.92;;;;;;;;;;5025871;28;20109;-80
2022/03/22 02:07:48;;;;;;;92.57;29.30;;;;;;;;;;5034477;28;20127;-80
2022/03/22 02:10:14;;;;;;;81.55;28.60;;;;;;;;;;5025696;28;20033;-79
2022/03/22 02:12:42;;;;;;;86.25;28.60;;;;;;;;;;5022407;28;20064;-79
2022/03/22 02:15:07;;;;;;;95.13;29.27;;;;;;;;;;5037518;28;20033;-80
2022/03/22 02:17:34;;;;;;;73.47;26.52;;;;;;;;;;5023659;28;20090;-81
2022/03/22 02:20:01;;;;;;;89.15;30.65;;;;;;;;;;5024750;28;20029;-82
2022/03/22 02:22:34;;;;;;;83.32;30.13;;;;;;;;;;5021710;28;20032;-80
2022/03/22 02:25:01;;;;;;;87.65;27.73;;;;;;;;;;5023649;28;20490;-80
2022/03/22 02:27:29;;;;;;;94.47;29.35;;;;;;;;;;5024204;28;20108;-81
2022/03/22 02:29:55;;;;;;;85.22;28.58;;;;;;;;;;5036385;28;20832;-79
2022/03/22 02:32:24;;;;;;;92.72;30.35;;;;;;;;;;5004818;28;20029;-80
2022/03/22 02:34:50;;;;;;;69.40;24.42;;;;;;;;;;5022421;28;20030;-80
2022/03/22 02:37:15;;;;;;;96.22;29.30;;;;;;;;;;5020838;28;20037;-81
2022/03/22 02:39:41;;;;;;;88.47;27.83;;;;;;;;;;5021198;28;20025;-81
2022/03/22 02:42:07;;;;;;;103.68;30.45;;;;;;;;;;5038371;28;20029;-79
2022/03/22 02:44:32;;;;;;;77.90;28.13;;;;;;;;;;5026869;28;20032;-80
2022/03/22 02:46:58;;;;;;;91.97;31.17;;;;;;;;;;5008122;28;20033;-81
2022/03/22 02:49:23;;;;;;;102.55;28.48;;;;;;;;;;5005913;28;20080;-81
2022/03/22 02:51:49;;;;;;;93.45;29.92;;;;;;;;;;5001108;28;20030;-81
2022/03/22 02:54:16;;;;;;;103.15;29.95;;;;;;;;;;5007549;28;20100;-80
2022/03/22 02:56:41;;;;;;;98.35;31.95;;;;;;;;;;5026671;28;20029;-79
2022/03/22 02:59:07;;;;;;;109.82;30.17;;;;;;;;;;5027800;28;20038;-79
2022/03/22 03:01:32;;;;;;;106.18;31.27;;;;;;;;;;5008885;28;20036;-81
2022/03/22 03:04:00;;;;;;;113.07;31.02;;;;;;;;;;5007092;28;20187;-80
2022/03/22 03:06:28;;;;;;;100.20;29.85;;;;;;;;;;5025335;28;20057;-79
2022/03/22 03:08:56;;;;;;;101.22;30.83;;;;;;;;;;5026268;28;20044;-79
2022/03/22 03:11:21;;;;;;;115.50;32.40;;;;;;;;;;5023751;28;20025;-79
2022/03/22 03:16:31;;;;;;;106.30;31.75;;;;;;;;;;5024031;28;20044;-79
2022/03/22 03:18:57;;;;;;;93.78;30.23;;;;;;;;;;5038298;28;20187;-80
2022/03/22 03:21:26;;;;;;;117.75;34.47;;;;;;;;;;5023077;28;20083;-79
2022/03/22 03:23:51;;;;;;;117.63;34.50;;;;;;;;;;5015760;28;20026;-80
2022/03/22 03:26:17;;;;;;;111.82;30.27;;;;;;;;;;5018753;28;20029;-79
2022/03/22 03:28:42;;;;;;;95.28;30.55;;;;;;;;;;5020536;28;20155;-80
2022/03/22 03:31:08;;;;;;;121.25;32.78;;;;;;;;;;5019285;28;20130;-80
2022/03/22 03:33:33;;;;;;;124.90;32.85;;;;;;;;;;4984554;28;21051;-80
2022/03/22 03:35:59;;;;;;;116.80;33.88;;;;;;;;;;5019204;28;20025;-80
2022/03/22 03:38:25;;;;;;;100.43;30.35;;;;;;;;;;5020736;28;20053;-78
2022/03/22 03:43:38;;;;;;;113.70;33.35;;;;;;;;;;5020878;28;20044;-81
2022/03/22 03:48:47;;;;;;;125.63;36.05;;;;;;;;;;5018366;28;20060;-78
2022/03/22 03:51:13;;;;;;;106.00;30.50;;;;;;;;;;4995733;28;20038;-78
2022/03/22 03:53:38;;;;;;;126.65;36.38;;;;;;;;;;4982251;28;20049;-79
2022/03/22 03:56:04;;;;;;;117.78;31.70;;;;;;;;;;5019726;28;20110;-81
2022/03/22 03:58:30;;;;;;;114.32;31.92;;;;;;;;;;5018226;28;20063;-81
2022/03/22 04:00:56;;;;;;;106.78;32.60;;;;;;;;;;5003335;28;20044;-81
2022/03/22 04:03:21;;;;;;;122.47;29.92;;;;;;;;;;4997908;28;20033;-81
2022/03/22 04:05:47;;;;;;;130.10;30.85;;;;;;;;;;5016617;28;20458;-81
2022/03/22 04:08:12;;;;;;;114.25;32.50;;;;;;;;;;5015780;28;20029;-79
2022/03/22 04:10:38;;;;;;;110.15;30.77;;;;;;;;;;4982291;28;20033;-81
2022/03/22 04:13:04;;;;;;;133.38;32.25;;;;;;;;;;5001419;28;20116;-80
2022/03/22 04:15:30;;;;;;;99.90;29.83;;;;;;;;;;5004303;28;20747;-81
2022/03/22 04:17:59;;;;;;;119.05;34.78;;;;;;;;;;5024367;28;20029;-80
2022/03/22 04:20:30;;;;;;;121.57;35.50;;;;;;;;;;5003645;28;20038;-79
2022/03/22 04:22:55;;;;;;;137.38;37.70;;;;;;;;;;5019845;28;20033;-79
2022/03/22 04:25:21;;;;;;;147.38;36.95;;;;;;;;;;5020256;28;20485;-81
2022/03/22 04:33:14;;;;;;;116.95;33.50;;;;;;;;;;5020124;28;20098;-81
2022/03/22 04:35:40;;;;;;;137.90;36.55;;;;;;;;;;5014995;28;20041;-81
2022/03/22 04:38:05;;;;;;;148.85;40.00;;;;;;;;;;5038742;28;20527;-81
2022/03/22 04:40:31;;;;;;;113.38;31.13;;;;;;;;;;5018378;28;20045;-79
2022/03/22 04:42:57;;;;;;;136.95;39.83;;;;;;;;;;5036834;28;20034;-81
2022/03/22 04:45:23;;;;;;;119.60;36.92;;;;;;;;;;5004300;28;20057;-79
2022/03/22 04:47:49;;;;;;;134.93;38.53;;;;;;;;;;5018517;28;20038;-80
2022/03/22 04:50:17;;;;;;;120.03;33.55;;;;;;;;;;5019617;28;20040;-80
2022/03/22 04:58:12;;;;;;;126.03;37.58;;;;;;;;;;5019430;28;20040;-81
2022/03/22 05:00:37;;;;;;;135.35;35.30;;;;;;;;;;5006255;28;20033;-81
2022/03/22 05:03:04;;;;;;;110.45;34.75;;;;;;;;;;5033637;28;20044;-81
2022/03/22 05:08:13;;;;;;;124.00;37.83;;;;;;;;;;5022361;28;20440;-79
2022/03/22 05:10:39;;;;;;;126.55;37.70;;;;;;;;;;5024227;28;20037;-81
2022/03/22 05:13:04;;;;;;;108.35;35.50;;;;;;;;;;5021633;28;20567;-80
2022/03/22 05:15:32;;;;;;;101.05;36.72;;;;;;;;;;5020277;28;20029;-81
2022/03/22 05:17:58;;;;;;;122.38;38.33;;;;;;;;;;5018475;28;20499;-79
2022/03/22 05:20:23;;;;;;;102.85;33.83;;;;;;;;;;5022103;28;20037;-80
2022/03/22 05:22:49;;;;;;;117.65;34.95;;;;;;;;;;5006872;28;20036;-80
2022/03/22 05:25:15;;;;;;;104.85;33.75;;;;;;;;;;5025856;28;20109;-79
2022/03/22 05:27:41;;;;;;;82.50;28.48;;;;;;;;;;5021968;28;20061;-81
2022/03/22 05:30:08;;;;;;;85.95;30.73;;;;;;;;;;5017743;28;20519;-80
2022/03/22 05:32:33;;;;;;;101.85;30.85;;;;;;;;;;5020278;28;20060;-79
2022/03/22 05:34:59;;;;;;;103.70;33.50;;;;;;;;;;5007967;28;20096;-79
2022/03/22 05:37:25;;;;;;;90.28;32.22;;;;;;;;;;5021619;28;20049;-79
2022/03/22 05:39:51;;;;;;;94.40;32.63;;;;;;;;;;5022819;28;20047;-78
2022/03/22 05:42:16;;;;;;;94.97;30.90;;;;;;;;;;5021306;28;20058;-81
2022/03/22 05:44:47;;;;;;;86.65;28.52;;;;;;;;;;5017304;28;20049;-82
2022/03/22 05:47:13;;;;;;;79.28;25.92;;;;;;;;;;5020250;28;20025;-82
2022/03/22 05:49:39;;;;;;;92.20;30.38;;;;;;;;;;5032100;28;20137;-79
2022/03/22 05:52:06;;;;;;;107.97;33.65;;;;;;;;;;5024533;28;20052;-81
2022/03/22 05:54:32;;;;;;;95.03;30.90;;;;;;;;;;5039786;28;20278;-80
2022/03/22 05:56:58;;;;;;;78.45;28.17;;;;;;;;;;5029279;28;20037;-81
2022/03/22 05:59:24;;;;;;;86.07;32.72;;;;;;;;;;5019623;28;20670;-81
2022/03/22 06:01:50;;;;;;;77.60;29.00;;;;;;;;;;5007700;28;20432;-80
2022/03/22 06:04:16;;;;;;;91.00;32.58;;;;;;;;;;5024271;28;20500;-80
2022/03/22 06:06:42;;;;;;;84.40;32.55;;;;;;;;;;5023272;28;20021;-80
2022/03/22 06:09:07;;;;;;;85.97;30.50;;;;;;;;;;5007063;28;20532;-80
2022/03/22 06:11:35;;;;;;;81.53;30.83;;;;;;;;;;5024252;28;20245;-80
2022/03/22 06:14:05;;;;;;;72.28;26.85;;;;;;;;;;5041086;28;20026;-81
2022/03/22 06:16:30;;;;;;;76.57;28.88;;;;;;;;;;5023704;28;20037;-81
2022/03/22 06:18:56;;;;;;;92.85;29.35;;;;;;;;;;5024277;28;20044;-80
2022/03/22 06:21:22;;;;;;;80.65;29.33;;;;;;;;;;5036042;28;20037;-81
2022/03/22 06:23:48;;;;;;;74.95;29.33;;;;;;;;;;5026530;28;20037;-80
2022/03/22 06:26:14;;;;;;;83.13;29.48;;;;;;;;;;5038561;28;20418;-81
2022/03/22 06:28:41;;;;;;;77.85;29.85;;;;;;;;;;5021446;28;20036;-81
2022/03/22 06:31:06;;;;;;;80.07;29.20;;;;;;;;;;5026130;28;20032;-81
2022/03/22 06:33:33;;;;;;;73.28;27.50;;;;;;;;;;5025891;28;20021;-81
2022/03/22 06:35:59;;;;;;;73.00;27.90;;;;;;;;;;5021834;28;20037;-80
2022/03/22 06:38:25;;;;;;;80.22;29.67;;;;;;;;;;5039628;28;20116;-81
2022/03/22 06:40:50;;;;;;;82.05;28.48;;;;;;;;;;5023698;28;20119;-80
2022/03/22 06:43:18;;;;;;;70.53;24.90;;;;;;;;;;5021712;28;20707;-81
2022/03/22 06:45:46;;;;;;;77.28;28.85;;;;;;;;;;5024956;28;20091;-81
2022/03/22 06:48:12;;;;;;;66.53;26.33;;;;;;;;;;5021774;28;20068;-81
2022/03/22 06:50:39;;;;;;;62.75;26.13;;;;;;;;;;5038275;28;20049;-82
2022/03/22 06:53:06;;;;;;;59.55;24.77;;;;;;;;;;5039854;28;20041;-81
2022/03/22 06:55:32;;;;;;;70.00;28.05;;;;;;;;;;5017818;28;20117;-81
2022/03/22 06:57:59;;;;;;;53.72;20.90;;;;;;;;;;5018027;28;20021;-78
2022/03/22 07:00:28;;;;;;;42.45;18.67;;;;;;;;;;5017589;28;20221;-80
2022/03/22 07:02:55;;;;;;;58.28;24.95;;;;;;;;;;5024578;28;20030;-81
2022/03/22 07:05:20;;;;;;;48.50;21.85;;;;;;;;;;5035379;28;20681;-79
2022/03/22 07:07:46;;;;;;;62.60;24.08;;;;;;;;;;5036524;28;20037;-80
2022/03/22 07:10:14;;;;;;;54.38;21.40;;;;;;;;;;5015055;28;20056;-80
2022/03/22 07:12:51;;;;;;;46.60;20.70;;;;;;;;;;5035740;28;20087;-81
2022/03/22 07:15:33;;;;;;;46.25;21.92;;;;;;;;;;5012846;28;20029;-81
2022/03/22 07:18:00;;;;;;;48.40;20.40;;;;;;;;;;5032754;28;20527;-81
2022/03/22 07:20:27;;;;;;;49.05;19.55;;;;;;;;;;5023795;28;20702;-78
2022/03/22 07:22:53;;;;;;;36.45;16.63;;;;;;;;;;5037188;28;20044;-79
2022/03/22 07:25:19;;;;;;;40.95;16.80;;;;;;;;;;5017399;28;20025;-79
2022/03/22 07:27:45;;;;;;;41.10;18.52;;;;;;;;;;5020838;28;20025;-79
2022/03/22 07:30:11;;;;;;;42.15;17.83;;;;;;;;;;5034976;28;20056;-78
2022/03/22 07:32:41;;;;;;;46.25;19.10;;;;;;;;;;5022786;28;21094;-80
2022/03/22 07:35:08;;;;;;;34.00;16.42;;;;;;;;;;5018254;28;20037;-80
2022/03/22 07:37:34;;;;;;;37.72;17.02;;;;;;;;;;5020744;28;20037;-79
2022/03/22 07:40:20;;;;;;;45.25;18.48;;;;;;;;;;5018778;28;20021;-79
2022/03/22 07:43:05;;;;;;;35.38;16.92;;;;;;;;;;5015569;28;20049;-81
2022/03/22 07:45:30;;;;;;;41.60;16.17;;;;;;;;;;5017360;28;20021;-80
2022/03/22 07:47:56;;;;;;;34.13;15.85;;;;;;;;;;5032618;28;20677;-81
2022/03/22 07:53:06;;;;;;;29.35;14.88;;;;;;;;;;5030206;28;20063;-79
2022/03/22 07:55:45;;;;;;;36.58;14.77;;;;;;;;;;5019676;28;20124;-79
2022/03/22 07:58:11;;;;;;;40.60;15.80;;;;;;;;;;5015559;28;20037;-79
2022/03/22 08:00:39;;;;;;;36.03;15.73;;;;;;;;;;5016841;28;20029;-80
2022/03/22 08:03:08;;;;;;;33.10;13.95;;;;;;;;;;5026044;28;20053;-80
2022/03/22 08:05:35;;;;;;;39.78;13.38;;;;;;;;;;5010294;28;20840;-80
2022/03/22 08:08:01;;;;;;;34.60;14.82;;;;;;;;;;5018811;28;20112;-81
2022/03/22 08:10:27;;;;;;;30.95;14.73;;;;;;;;;;5031758;28;20026;-79
2022/03/22 08:12:56;;;;;;;33.15;13.48;;;;;;;;;;5022221;28;20402;-81
2022/03/22 08:15:24;;;;;;;33.70;12.95;;;;;;;;;;5006036;28;20409;-79
2022/03/22 08:17:50;;;;;;;33.83;13.88;;;;;;;;;;5040861;28;20033;-79
2022/03/22 08:20:16;;;;;;;34.75;14.73;;;;;;;;;;5004652;28;20032;-79
2022/03/22 08:22:45;;;;;;;38.72;14.35;;;;;;;;;;5019393;28;20025;-79
2022/03/22 08:25:14;;;;;;;30.58;13.88;;;;;;;;;;5027162;28;20055;-79
2022/03/22 08:27:40;;;;;;;27.35;11.98;;;;;;;;;;5029893;23;20624;-52
2022/03/22 08:30:06;;;;;;;34.47;14.35;;;;;;;;;;5060346;28;20032;-54
2022/03/22 08:32:32;;;;;;;36.47;14.80;;;;;;;;;;5061487;28;20067;-53
2022/03/22 08:34:58;;;;;;;34.22;12.90;;;;;;;;;;5060104;28;20056;-51
2022/03/22 08:37:23;;;;;;;30.75;13.30;;;;;;;;;;5065028;28;20116;-52
2022/03/22 08:39:49;;;;;;;31.55;13.82;;;;;;;;;;5061067;28;20170;-54
2022/03/22 08:42:14;;;;;;;29.10;12.15;;;;;;;;;;5063494;22;20058;-82
2022/03/22 08:44:40;;;;;;;40.10;13.95;;;;;;;;;;4987952;28;20056;-80
2022/03/22 08:47:07;;;;;;;30.98;12.23;;;;;;;;;;4990226;28;20030;-80
2022/03/22 08:49:33;;;;;;;29.25;12.85;;;;;;;;;;5005783;28;20041;-78
2022/03/22 08:52:00;;;;;;;41.17;13.00;;;;;;;;;;4993905;28;20138;-79
2022/03/22 08:54:27;;;;;;;28.88;12.07;;;;;;;;;;5025530;28;20052;-82
2022/03/22 08:56:53;;;;;;;35.15;11.77;;;;;;;;;;5023095;28;20030;-77
2022/03/22 08:59:18;;;;;;;24.77;10.40;;;;;;;;;;5024286;28;20032;-82
2022/03/22 09:01:45;;;;;;;25.20;11.10;;;;;;;;;;5024133;28;20045;-83
2022/03/22 09:06:55;;;;;;;28.75;12.93;;;;;;;;;;5031962;28;20037;-84
2022/03/22 09:09:21;;;;;;;31.25;11.50;;;;;;;;;;5028412;28;20026;-79
2022/03/22 09:11:46;;;;;;;31.50;12.20;;;;;;;;;;5022683;28;23908;-80
2022/03/22 09:14:12;;;;;;;25.63;12.07;;;;;;;;;;5027917;28;20481;-80
2022/03/22 09:16:38;;;;;;;29.15;11.05;;;;;;;;;;5023035;28;20033;-80
2022/03/22 09:19:03;;;;;;;26.42;11.85;;;;;;;;;;5023285;28;20025;-80
2022/03/22 09:21:29;;;;;;;25.23;11.75;;;;;;;;;;5013395;28;20036;-79
2022/03/22 09:23:55;;;;;;;26.17;11.30;;;;;;;;;;5031995;28;20037;-79
2022/03/22 09:26:21;;;;;;;24.25;10.55;;;;;;;;;;5015780;28;20082;-80
2022/03/22 09:28:52;;;;;;;27.25;11.02;;;;;;;;;;5007033;28;20121;-78
2022/03/22 09:31:18;;;;;;;27.83;11.23;;;;;;;;;;5012821;28;20112;-79
2022/03/22 09:33:44;;;;;;;28.48;11.05;;;;;;;;;;5023350;28;20482;-78
2022/03/22 09:36:09;;;;;;;25.70;11.95;;;;;;;;;;5026764;28;20040;-79
2022/03/22 09:38:37;;;;;;;23.75;11.50;;;;;;;;;;5040460;28;20271;-79
2022/03/22 09:41:21;;;;;;;23.20;9.13;;;;;;;;;;5046372;28;20059;-80
2022/03/22 09:43:59;;;;;;;26.60;10.38;;;;;;;;;;5070199;28;20056;-81
2022/03/22 09:47:13;;;;;;;20.17;9.70;;;;;;;;;;5067837;28;20032;-81
2022/03/22 09:50:01;;;;;;;24.50;10.18;;;;;;;;;;5037421;28;20068;-80
2022/03/22 09:52:47;;;;;;;24.50;11.02;;;;;;;;;;5018478;28;20702;-81
2022/03/22 09:55:24;;;;;;;24.42;10.68;;;;;;;;;;5021460;28;20028;-80
2022/03/22 09:57:57;;;;;;;21.55;9.50;;;;;;;;;;5022780;28;20033;-80
2022/03/22 10:00:28;;;;;;;24.27;9.88;;;;;;;;;;5057826;28;20085;-81
2022/03/22 10:02:54;;;;;;;22.90;9.70;;;;;;;;;;5077511;23;20038;-50
2022/03/22 10:05:24;;;;;;;28.48;9.35;;;;;;;;;;5045540;28;20445;-55
2022/03/22 10:08:04;;;;;;;23.90;10.50;;;;;;;;;;5045156;28;20527;-54
2022/03/22 10:10:29;;;;;;;27.50;10.75;;;;;;;;;;5046271;28;20037;-54
2022/03/22 10:13:03;;;;;;;28.08;11.20;;;;;;;;;;5046254;28;20040;-54
2022/03/22 10:15:35;;;;;;;22.23;9.68;;;;;;;;;;5046285;28;20444;-55
2022/03/22 10:18:09;;;;;;;23.77;9.45;;;;;;;;;;5046490;28;20063;-51
2022/03/22 10:20:36;;;;;;;18.98;9.70;;;;;;;;;;5056523;28;20037;-51
2022/03/22 10:23:05;;;;;;;22.10;10.52;;;;;;;;;;5042698;28;20106;-53
2022/03/22 10:25:33;;;;;;;26.95;11.65;;;;;;;;;;5047576;28;20029;-51
2022/03/22 10:28:01;;;;;;;30.15;10.75;;;;;;;;;;5044948;28;20148;-53
2022/03/22 10:30:27;;;;;;;28.08;10.68;;;;;;;;;;5050775;28;20017;-53
2022/03/22 10:32:53;;;;;;;28.38;11.43;;;;;;;;;;5047691;28;20054;-54
2022/03/22 10:35:26;;;;;;;25.48;11.10;;;;;;;;;;5048121;28;20338;-54
2022/03/22 10:37:56;;;;;;;22.42;9.98;;;;;;;;;;5048366;28;20033;-54
2022/03/22 10:40:26;;;;;;;24.67;9.95;;;;;;;;;;5047634;28;20033;-53
2022/03/22 10:43:09;;;;;;;25.50;10.40;;;;;;;;;;5043396;28;20021;-54
2022/03/22 10:46:01;;;;;;;20.95;9.52;;;;;;;;;;5046144;28;20050;-53
2022/03/22 10:48:34;;;;;;;23.92;10.15;;;;;;;;;;5044854;28;20032;-53
2022/03/22 10:51:01;;;;;;;22.75;11.13;;;;;;;;;;5045747;28;20503;-54
2022/03/22 10:53:28;;;;;;;25.13;10.57;;;;;;;;;;5043856;28;20045;-53
2022/03/22 10:55:55;;;;;;;21.35;10.15;;;;;;;;;;5053575;28;20067;-54
2022/03/22 10:58:22;;;;;;;20.27;10.63;;;;;;;;;;5066676;28;20038;-54
2022/03/22 11:00:49;;;;;;;26.10;10.32;;;;;;;;;;5069886;28;20491;-51
2022/03/22 11:03:19;;;;;;;20.48;9.95;;;;;;;;;;5062550;28;20084;-54
2022/03/22 11:05:49;;;;;;;26.13;10.68;;;;;;;;;;5065876;28;20036;-51
2022/03/22 11:08:19;;;;;;;18.35;9.10;;;;;;;;;;5061323;28;20277;-53
2022/03/22 11:10:45;;;;;;;37.13;10.02;;;;;;;;;;5066993;28;20036;-52
2022/03/22 11:13:10;;;;;;;28.08;10.98;;;;;;;;;;5065508;28;20039;-52
2022/03/22 11:15:38;;;;;;;24.58;10.85;;;;;;;;;;5065929;28;20032;-53
2022/03/22 11:18:06;;;;;;;30.38;10.02;;;;;;;;;;5062301;28;20145;-52
2022/03/22 11:20:32;;;;;;;25.13;10.32;;;;;;;;;;5066435;28;20046;-55
2022/03/22 11:23:00;;;;;;;24.80;10.90;;;;;;;;;;5062382;28;20032;-53
2022/03/22 11:25:34;;;;;;;24.25;10.32;;;;;;;;;;5069206;28;20388;-54
2022/03/22 11:28:11;;;;;;;24.27;10.15;;;;;;;;;;5062324;28;20716;-52
2022/03/22 11:30:40;;;;;;;26.85;10.07;;;;;;;;;;5062754;28;20050;-55
2022/03/22 11:35:59;;;;;;;16.33;8.95;;;;;;;;;;5070258;28;20447;-55
2022/03/22 11:38:44;;;;;;;24.20;10.48;;;;;;;;;;5070280;28;20031;-55
2022/03/22 11:44:37;;;;;;;;;;;;;;;;;;5068802;28;20074;-55
2022/03/22 11:47:07;;;;;;;23.42;9.68;;;;;;;;;;5065315;28;20306;-55
2022/03/22 11:49:55;;;;;;;24.60;9.98;;;;;;;;;;5067636;28;20042;-55
2022/03/22 11:52:26;;;;;;;21.52;9.98;;;;;;;;;;5068888;28;20028;-55
2022/03/22 11:54:57;;;;;;;28.08;10.13;;;;;;;;;;5064639;28;20097;-55
2022/03/22 11:57:22;;;;;;;25.38;11.30;;;;;;;;;;5068712;28;20063;-54
2022/03/22 11:59:48;;;;;;;28.92;11.10;;;;;;;;;;5070280;28;20063;-54
2022/03/22 12:02:15;;;;;;;30.77;10.90;;;;;;;;;;5074186;28;20043;-52
2022/03/22 12:04:42;;;;;;;32.22;11.30;;;;;;;;;;5062482;28;20610;-54
2022/03/22 12:07:11;;;;;;;32.40;11.05;;;;;;;;;;5059530;28;20077;-54
2022/03/22 12:09:41;;;;;;;18.52;9.77;;;;;;;;;;5059653;28;20045;-54
2022/03/22 12:12:09;;;;;;;38.88;10.38;;;;;;;;;;5063482;28;20024;-55
2022/03/22 12:14:35;;;;;;;25.90;10.63;;;;;;;;;;5067410;28;20067;-54
2022/03/22 12:17:03;;;;;;;36.20;11.98;;;;;;;;;;5060469;28;20459;-54
2022/03/22 12:19:31;;;;;;;26.15;10.57;;;;;;;;;;5063498;28;20082;-54
2022/03/22 12:21:58;;;;;;;27.00;10.77;;;;;;;;;;5063527;28;20056;-52
2022/03/22 12:24:25;;;;;;;23.25;10.07;;;;;;;;;;5062268;28;20182;-54
2022/03/22 12:26:51;;;;;;;23.25;10.98;;;;;;;;;;5062692;28;20036;-54
2022/03/22 12:29:17;;;;;;;26.73;10.05;;;;;;;;;;5067100;28;20514;-54
2022/03/22 12:31:51;;;;;;;24.42;10.68;;;;;;;;;;5064483;28;20040;-54
2022/03/22 12:34:17;;;;;;;30.77;11.38;;;;;;;;;;5065735;28;20119;-53
2022/03/22 12:36:43;;;;;;;26.38;11.57;;;;;;;;;;5062988;28;20161;-54
2022/03/22 12:39:09;;;;;;;23.42;10.77;;;;;;;;;;5066083;28;20442;-54
2022/03/22 12:41:34;;;;;;;22.90;10.05;;;;;;;;;;5060937;28;20133;-55
2022/03/22 12:44:00;;;;;;;21.00;9.23;;;;;;;;;;5059760;28;20665;-54
2022/03/22 12:46:28;;;;;;;22.15;9.95;;;;;;;;;;5065046;28;20103;-54
2022/03/22 12:48:55;;;;;;;40.17;10.90;;;;;;;;;;5064225;28;20029;-54
2022/03/22 12:51:21;;;;;;;30.00;10.00;;;;;;;;;;5061019;28;20643;-55
2022/03/22 12:53:47;;;;;;;23.33;10.30;;;;;;;;;;5065272;28;20126;-54
2022/03/22 12:56:17;;;;;;;22.02;11.57;;;;;;;;;;5070551;28;20486;-54
2022/03/22 12:58:43;;;;;;;20.98;11.05;;;;;;;;;;5069047;28;20024;-56
2022/03/22 13:01:08;;;;;;;22.80;10.27;;;;;;;;;;5070918;28;20063;-55
2022/03/22 13:03:36;;;;;;;23.63;10.60;;;;;;;;;;5067838;28;20554;-55
2022/03/22 13:06:02;;;;;;;23.13;10.05;;;;;;;;;;5068244;28;20028;-55
2022/03/22 13:11:26;;;;;;;22.00;10.75;;;;;;;;;;5071205;28;20397;-55
2022/03/22 13:11:27;;;;;;;23.38;11.00;;;;;;;;;;5068446;28;20036;-55
2022/03/22 13:16:38;;;;;;;18.40;9.00;;;;;;;;;;5071258;28;20500;-55
2022/03/22 13:19:06;;;;;;;21.67;9.38;;;;;;;;;;5062313;28;20028;-55
2022/03/22 13:21:36;;;;;;;26.77;10.02;;;;;;;;;;5068446;28;20036;-55
2022/03/22 13:24:17;;;;;;;21.38;9.85;;;;;;;;;;5067325;28;20077;-55
2022/03/22 13:26:57;;;;;;;24.67;9.63;;;;;;;;;;5063620;28;20126;-55
2022/03/22 13:29:24;;;;;;;25.02;9.95;;;;;;;;;;5064933;28;20119;-55
2022/03/22 13:32:00;;;;;;;22.73;9.70;;;;;;;;;;5069594;28;20047;-55
2022/03/22 13:34:28;;;;;;;24.13;10.90;;;;;;;;;;5069597;28;20057;-55
2022/03/22 13:37:10;;;;;;;24.58;10.85;;;;;;;;;;5068250;28;20773;-55
2022/03/22 13:39:40;;;;;;;18.08;10.07;;;;;;;;;;5068423;28;20123;-55
2022/03/22 13:42:17;;;;;;;23.13;9.90;;;;;;;;;;5072487;28;20052;-55
2022/03/22 13:44:44;;;;;;;23.52;10.95;;;;;;;;;;5068379;28;20025;-55
2022/03/22 13:47:10;;;;;;;19.25;10.50;;;;;;;;;;5069134;28;20068;-53
2022/03/22 13:49:36;;;;;;;21.67;11.38;;;;;;;;;;5065516;28;20107;-55
2022/03/22 13:52:03;;;;;;;25.80;11.93;;;;;;;;;;5064669;28;20037;-55
2022/03/22 13:54:28;;;;;;;23.05;11.55;;;;;;;;;;5067169;28;20377;-55
2022/03/22 13:57:07;;;;;;;26.67;11.82;;;;;;;;;;5067648;28;20416;-53
2022/03/22 13:59:41;;;;;;;25.50;11.23;;;;;;;;;;5068595;28;20538;-54
2022/03/22 14:02:08;;;;;;;25.85;11.52;;;;;;;;;;5065255;28;20028;-54
2022/03/22 14:04:35;;;;;;;23.70;12.10;;;;;;;;;;5063550;28;20103;-55
2022/03/22 14:07:02;;;;;;;29.45;11.52;;;;;;;;;;5067468;28;20050;-53
2022/03/22 14:09:28;;;;;;;33.45;10.63;;;;;;;;;;5067359;28;20024;-54
2022/03/22 14:11:53;;;;;;;21.92;10.60;;;;;;;;;;5062911;28;20043;-54
2022/03/22 14:14:19;;;;;;;23.40;10.82;;;;;;;;;;5067124;28;20074;-55
2022/03/22 14:16:44;;;;;;;23.75;11.55;;;;;;;;;;5068598;28;20028;-54
2022/03/22 14:19:13;;;;;;;23.67;9.90;;;;;;;;;;5063205;28;20041;-52
2022/03/22 14:21:39;;;;;;;19.17;10.57;;;;;;;;;;5067056;28;20040;-53
2022/03/22 14:24:05;;;;;;;36.22;11.27;;;;;;;;;;5065245;28;20492;-53
2022/03/22 14:26:31;;;;;;;23.95;10.40;;;;;;;;;;5065473;28;20064;-54
2022/03/22 14:28:56;;;;;;;30.75;11.13;;;;;;;;;;5065366;28;20056;-54
2022/03/22 14:31:22;;;;;;;21.83;10.73;;;;;;;;;;5069398;28;20063;-54
2022/03/22 14:33:47;;;;;;;22.52;10.75;;;;;;;;;;5066988;28;20413;-55
2022/03/22 14:36:13;;;;;;;24.90;11.00;;;;;;;;;;5065701;28;20032;-55
2022/03/22 14:38:38;;;;;;;32.85;11.75;;;;;;;;;;5069314;28;20040;-55
2022/03/22 14:43:50;;;;;;;22.20;11.68;;;;;;;;;;5062723;28;20520;-54
2022/03/22 14:46:17;;;;;;;39.30;11.40;;;;;;;;;;5067448;28;20036;-54
2022/03/22 14:48:42;;;;;;;25.90;12.25;;;;;;;;;;5065684;28;20119;-52
2022/03/22 14:51:08;;;;;;;22.45;11.95;;;;;;;;;;5062461;28;20040;-49
2022/03/22 14:59:01;;;;;;;26.63;10.88;;;;;;;;;;5064995;28;20036;-50
2022/03/22 15:01:30;;;;;;;21.73;9.60;;;;;;;;;;5068165;28;20025;-50
2022/03/22 15:03:57;;;;;;;19.25;10.38;;;;;;;;;;5069046;28;20059;-50
2022/03/22 15:06:23;;;;;;;23.30;10.20;;;;;;;;;;5066495;28;20115;-50
2022/03/22 15:08:49;;;;;;;28.52;10.10;;;;;;;;;;5074889;28;20060;-50
2022/03/22 15:11:15;;;;;;;25.90;9.77;;;;;;;;;;5065389;28;21546;-49